sensor_id;sensor_type;location;lat;lon;timestamp;pressure;altitude;pressure_sealevel;temperature;humidity
82311;BME280;72015;51.330;12.316;2023-10-31T00:01:26;98337.05;;;12.75;55.13
82311;BME280;72015;51.330;12.316;2023-10-31T00:05:52;98338.75;;;12.66;55.74
82311;BME280;72015;51.330;12.316;2023-10-31T00:10:18;98338.13;;;12.59;55.58
82311;BME280;72015;51.330;12.316;2023-10-31T00:14:44;98338.75;;;12.47;56.39
82311;BME280;72015;51.330;12.316;2023-10-31T00:19:10;98340.88;;;12.40;56.49
82311;BME280;72015;51.330;12.316;2023-10-31T00:23:42;98343.86;;;12.34;56.62
82311;BME280;72015;51.330;12.316;2023-10-31T00:28:02;98346.92;;;12.28;56.70
82311;BME280;72015;51.330;12.316;2023-10-31T00:32:28;98351.53;;;12.18;57.94
82311;BME280;72015;51.330;12.316;2023-10-31T00:36:54;98352.59;;;12.02;58.14
82311;BME280;72015;51.330;12.316;2023-10-31T00:41:20;98350.90;;;11.97;58.03
82311;BME280;72015;51.330;12.316;2023-10-31T00:45:46;98348.30;;;11.96;57.77
82311;BME280;72015;51.330;12.316;2023-10-31T00:50:12;98346.20;;;11.99;57.36
82311;BME280;72015;51.330;12.316;2023-10-31T00:54:38;98345.03;;;11.99;57.50
82311;BME280;72015;51.330;12.316;2023-10-31T00:59:04;98346.25;;;11.85;59.73
82311;BME280;72015;51.330;12.316;2023-10-31T01:03:30;98346.91;;;11.70;59.49
82311;BME280;72015;51.330;12.316;2023-10-31T01:07:56;98345.53;;;11.70;58.43
82311;BME280;72015;51.330;12.316;2023-10-31T01:12:22;98342.33;;;11.83;57.17
82311;BME280;72015;51.330;12.316;2023-10-31T01:16:48;98339.14;;;11.95;56.90
82311;BME280;72015;51.330;12.316;2023-10-31T01:21:14;98336.36;;;12.00;56.94
82311;BME280;72015;51.330;12.316;2023-10-31T01:25:40;98336.08;;;11.98;58.33
82311;BME280;72015;51.330;12.316;2023-10-31T01:30:06;98336.35;;;11.90;59.16
82311;BME280;72015;51.330;12.316;2023-10-31T01:34:32;98335.86;;;11.79;59.77
82311;BME280;72015;51.330;12.316;2023-10-31T01:38:58;98336.55;;;11.62;61.88
82311;BME280;72015;51.330;12.316;2023-10-31T01:47:50;98329.52;;;11.14;63.08
82311;BME280;72015;51.330;12.316;2023-10-31T01:52:16;98325.28;;;11.05;61.86
82311;BME280;72015;51.330;12.316;2023-10-31T01:56:42;98320.48;;;11.01;61.61
82311;BME280;72015;51.330;12.316;2023-10-31T02:01:08;98318.22;;;11.01;61.22
82311;BME280;72015;51.330;12.316;2023-10-31T02:05:34;98317.30;;;10.99;61.76
82311;BME280;72015;51.330;12.316;2023-10-31T02:10:00;98316.38;;;10.96;61.94
82311;BME280;72015;51.330;12.316;2023-10-31T02:14:26;98315.46;;;10.94;61.84
82311;BME280;72015;51.330;12.316;2023-10-31T02:18:52;98314.54;;;10.93;62.41
82311;BME280;72015;51.330;12.316;2023-10-31T02:23:18;98313.37;;;10.91;61.81
82311;BME280;72015;51.330;12.316;2023-10-31T02:27:44;98312.41;;;10.87;63.26
82311;BME280;72015;51.330;12.316;2023-10-31T02:32:10;98312.34;;;10.84;63.11
82311;BME280;72015;51.330;12.316;2023-10-31T02:36:36;98315.06;;;10.71;64.35
82311;BME280;72015;51.330;12.316;2023-10-31T02:41:02;98318.69;;;10.58;65.31
82311;BME280;72015;51.330;12.316;2023-10-31T02:45:28;98320.86;;;10.42;66.43
82311;BME280;72015;51.330;12.316;2023-10-31T02:49:54;98319.98;;;10.23;66.27
82311;BME280;72015;51.330;12.316;2023-10-31T02:54:20;98318.39;;;10.12;65.81
82311;BME280;72015;51.330;12.316;2023-10-31T02:58:46;98315.38;;;10.10;65.54
82311;BME280;72015;51.330;12.316;2023-10-31T03:03:12;98311.45;;;10.14;64.95
82311;BME280;72015;51.330;12.316;2023-10-31T03:07:38;98308.48;;;10.13;64.40
82311;BME280;72015;51.330;12.316;2023-10-31T03:12:04;98303.67;;;10.18;64.24
82311;BME280;72015;51.330;12.316;2023-10-31T03:16:30;98298.27;;;10.26;63.35
82311;BME280;72015;51.330;12.316;2023-10-31T03:20:56;98296.86;;;10.35;63.04
82311;BME280;72015;51.330;12.316;2023-10-31T03:25:22;98296.81;;;10.37;64.28
82311;BME280;72015;51.330;12.316;2023-10-31T03:29:48;98297.55;;;10.34;64.50
82311;BME280;72015;51.330;12.316;2023-10-31T03:38:40;98302.47;;;10.23;66.19
82311;BME280;72015;51.330;12.316;2023-10-31T03:43:06;98303.77;;;10.23;64.45
82311;BME280;72015;51.330;12.316;2023-10-31T03:47:32;98305.16;;;10.26;64.23
82311;BME280;72015;51.330;12.316;2023-10-31T03:51:58;98307.23;;;10.16;66.23
82311;BME280;72015;51.330;12.316;2023-10-31T03:56:24;98309.82;;;10.07;65.46
82311;BME280;72015;51.330;12.316;2023-10-31T04:00:50;98311.76;;;10.05;65.00
82311;BME280;72015;51.330;12.316;2023-10-31T04:05:16;98314.06;;;10.12;64.14
82311;BME280;72015;51.330;12.316;2023-10-31T04:09:42;98316.96;;;10.14;64.75
82311;BME280;72015;51.330;12.316;2023-10-31T04:14:08;98320.39;;;9.96;67.49
82311;BME280;72015;51.330;12.316;2023-10-31T04:18:34;98323.39;;;9.89;66.34
82311;BME280;72015;51.330;12.316;2023-10-31T04:23:00;98325.12;;;9.83;65.43
82311;BME280;72015;51.330;12.316;2023-10-31T04:27:26;98325.09;;;9.84;65.30
82311;BME280;72015;51.330;12.316;2023-10-31T04:31:52;98323.55;;;9.88;64.70
82311;BME280;72015;51.330;12.316;2023-10-31T04:36:18;98324.38;;;9.96;64.04
82311;BME280;72015;51.330;12.316;2023-10-31T04:40:44;98322.61;;;9.98;65.03
82311;BME280;72015;51.330;12.316;2023-10-31T04:45:10;98321.70;;;10.06;63.78
82311;BME280;72015;51.330;12.316;2023-10-31T04:49:36;98323.32;;;10.16;62.99
82311;BME280;72015;51.330;12.316;2023-10-31T04:54:02;98326.20;;;9.98;65.86
82311;BME280;72015;51.330;12.316;2023-10-31T04:58:28;98328.26;;;9.87;65.16
82311;BME280;72015;51.330;12.316;2023-10-31T05:02:54;98333.06;;;9.72;66.69
82311;BME280;72015;51.330;12.316;2023-10-31T05:07:20;98338.97;;;9.57;67.95
82311;BME280;72015;51.330;12.316;2023-10-31T05:11:46;98341.27;;;9.38;67.24
82311;BME280;72015;51.330;12.316;2023-10-31T05:16:12;98344.67;;;9.16;68.87
82311;BME280;72015;51.330;12.316;2023-10-31T05:20:38;98345.28;;;9.00;68.06
82311;BME280;72015;51.330;12.316;2023-10-31T05:25:04;98346.37;;;8.82;68.77
82311;BME280;72015;51.330;12.316;2023-10-31T05:29:30;98347.08;;;8.69;67.83
82311;BME280;72015;51.330;12.316;2023-10-31T05:33:56;98348.11;;;8.54;68.14
82311;BME280;72015;51.330;12.316;2023-10-31T05:38:22;98352.83;;;8.43;67.45
82311;BME280;72015;51.330;12.316;2023-10-31T05:42:48;98361.45;;;8.33;67.41
82311;BME280;72015;51.330;12.316;2023-10-31T05:47:14;98370.47;;;8.30;65.72
82311;BME280;72015;51.330;12.316;2023-10-31T05:51:40;98378.91;;;8.25;65.56
82311;BME280;72015;51.330;12.316;2023-10-31T05:56:06;98386.05;;;8.22;64.89
82311;BME280;72015;51.330;12.316;2023-10-31T06:00:32;98391.99;;;8.19;64.33
82311;BME280;72015;51.330;12.316;2023-10-31T06:04:58;98397.01;;;8.12;64.88
82311;BME280;72015;51.330;12.316;2023-10-31T06:09:24;98402.48;;;8.01;64.85
82311;BME280;72015;51.330;12.316;2023-10-31T06:13:50;98412.99;;;7.94;64.15
82311;BME280;72015;51.330;12.316;2023-10-31T06:18:16;98422.09;;;7.84;65.40
82311;BME280;72015;51.330;12.316;2023-10-31T06:22:42;98429.99;;;7.72;64.99
82311;BME280;72015;51.330;12.316;2023-10-31T06:27:08;98438.08;;;7.57;65.48
82311;BME280;72015;51.330;12.316;2023-10-31T06:31:34;98446.11;;;7.49;64.03
82311;BME280;72015;51.330;12.316;2023-10-31T06:36:00;98452.79;;;7.44;64.16
82311;BME280;72015;51.330;12.316;2023-10-31T06:40:26;98459.71;;;7.45;62.87
82311;BME280;72015;51.330;12.316;2023-10-31T06:44:52;98465.78;;;7.55;62.03
82311;BME280;72015;51.330;12.316;2023-10-31T06:49:18;98472.22;;;7.54;62.23
82311;BME280;72015;51.330;12.316;2023-10-31T06:53:44;98476.60;;;7.54;62.50
82311;BME280;72015;51.330;12.316;2023-10-31T06:58:10;98484.08;;;7.60;61.17
82311;BME280;72015;51.330;12.316;2023-10-31T07:02:36;98490.34;;;7.67;61.01
82311;BME280;72015;51.330;12.316;2023-10-31T07:07:02;98499.36;;;7.73;60.59
82311;BME280;72015;51.330;12.316;2023-10-31T07:11:28;98512.36;;;7.81;60.06
82311;BME280;72015;51.330;12.316;2023-10-31T07:15:54;98522.02;;;7.94;59.22
82311;BME280;72015;51.330;12.316;2023-10-31T07:20:20;98530.83;;;8.09;58.16
82311;BME280;72015;51.330;12.316;2023-10-31T07:24:46;98538.31;;;8.29;57.70
82311;BME280;72015;51.330;12.316;2023-10-31T07:29:12;98544.54;;;8.42;58.09
82311;BME280;72015;51.330;12.316;2023-10-31T07:33:38;98551.48;;;8.53;57.38
82311;BME280;72015;51.330;12.316;2023-10-31T07:38:04;98558.29;;;8.48;59.11
82311;BME280;72015;51.330;12.316;2023-10-31T07:42:30;98564.04;;;8.49;57.96
82311;BME280;72015;51.330;12.316;2023-10-31T07:46:56;98571.39;;;8.45;58.66
82311;BME280;72015;51.330;12.316;2023-10-31T07:51:22;98576.36;;;8.32;59.92
82311;BME280;72015;51.330;12.316;2023-10-31T07:55:48;98582.70;;;8.25;58.47
82311;BME280;72015;51.330;12.316;2023-10-31T08:00:14;98586.64;;;8.13;59.12
82311;BME280;72015;51.330;12.316;2023-10-31T08:04:40;98596.64;;;8.10;58.00
82311;BME280;72015;51.330;12.316;2023-10-31T08:09:06;98605.75;;;8.06;58.54
82311;BME280;72015;51.330;12.316;2023-10-31T08:13:32;98617.10;;;8.05;58.02
82311;BME280;72015;51.330;12.316;2023-10-31T08:17:58;98627.48;;;8.04;57.88
82311;BME280;72015;51.330;12.316;2023-10-31T08:22:24;98632.62;;;8.17;56.51
82311;BME280;72015;51.330;12.316;2023-10-31T08:26:50;98638.78;;;8.26;55.44
82311;BME280;72015;51.330;12.316;2023-10-31T08:31:16;98644.26;;;8.28;56.19
82311;BME280;72015;51.330;12.316;2023-10-31T08:35:42;98650.06;;;8.26;56.45
82311;BME280;72015;51.330;12.316;2023-10-31T08:40:08;98655.36;;;8.29;55.63
82311;BME280;72015;51.330;12.316;2023-10-31T08:44:34;98662.25;;;8.29;55.83
82311;BME280;72015;51.330;12.316;2023-10-31T08:49:00;98666.97;;;8.43;55.01
82311;BME280;72015;51.330;12.316;2023-10-31T08:53:26;98673.92;;;8.44;55.64
82311;BME280;72015;51.330;12.316;2023-10-31T08:57:52;98680.47;;;8.44;55.94
82311;BME280;72015;51.330;12.316;2023-10-31T09:02:18;98684.30;;;8.46;55.49
82311;BME280;72015;51.330;12.316;2023-10-31T09:06:44;98692.38;;;8.41;56.73
82311;BME280;72015;51.330;12.316;2023-10-31T09:11:10;98696.71;;;8.37;56.34
82311;BME280;72015;51.330;12.316;2023-10-31T09:15:36;98704.96;;;8.32;56.69
82311;BME280;72015;51.330;12.316;2023-10-31T09:20:02;98704.49;;;8.21;58.22
82311;BME280;72015;51.330;12.316;2023-10-31T09:24:28;98707.67;;;8.14;57.57
82311;BME280;72015;51.330;12.316;2023-10-31T09:28:54;98706.88;;;8.17;56.56
82311;BME280;72015;51.330;12.316;2023-10-31T09:33:20;98708.98;;;8.19;57.52
82311;BME280;72015;51.330;12.316;2023-10-31T09:37:46;98713.20;;;8.13;58.60
82311;BME280;72015;51.330;12.316;2023-10-31T09:42:13;98712.69;;;8.20;56.69
82311;BME280;72015;51.330;12.316;2023-10-31T09:46:38;98709.27;;;8.22;56.88
82311;BME280;72015;51.330;12.316;2023-10-31T09:51:04;98709.50;;;8.33;56.19
82311;BME280;72015;51.330;12.316;2023-10-31T09:55:30;98712.23;;;8.35;56.25
82311;BME280;72015;51.330;12.316;2023-10-31T09:59:56;98712.58;;;8.41;56.03
82311;BME280;72015;51.330;12.316;2023-10-31T10:04:22;98710.44;;;8.48;54.54
82311;BME280;72015;51.330;12.316;2023-10-31T10:08:48;98710.96;;;8.63;54.25
82311;BME280;72015;51.330;12.316;2023-10-31T10:13:16;98713.98;;;8.66;54.25
82311;BME280;72015;51.330;12.316;2023-10-31T10:17:41;98714.45;;;8.65;55.33
82311;BME280;72015;51.330;12.316;2023-10-31T10:22:06;98715.89;;;8.60;54.68
82311;BME280;72015;51.330;12.316;2023-10-31T10:26:32;98718.10;;;8.55;55.16
82311;BME280;72015;51.330;12.316;2023-10-31T10:30:58;98720.65;;;8.53;54.97
82311;BME280;72015;51.330;12.316;2023-10-31T10:35:24;98720.83;;;8.48;55.06
82311;BME280;72015;51.330;12.316;2023-10-31T10:39:51;98721.15;;;8.55;54.31
82311;BME280;72015;51.330;12.316;2023-10-31T10:44:16;98721.37;;;8.54;55.15
82311;BME280;72015;51.330;12.316;2023-10-31T10:48:42;98721.30;;;8.50;54.92
82311;BME280;72015;51.330;12.316;2023-10-31T11:02:00;98712.91;;;8.43;54.77
82311;BME280;72015;51.330;12.316;2023-10-31T11:06:26;98711.86;;;8.40;55.06
82311;BME280;72015;51.330;12.316;2023-10-31T11:10:52;98710.78;;;8.38;55.32
82311;BME280;72015;51.330;12.316;2023-10-31T11:15:18;98713.22;;;8.43;54.52
82311;BME280;72015;51.330;12.316;2023-10-31T11:19:44;98718.38;;;8.58;53.65
82311;BME280;72015;51.330;12.316;2023-10-31T11:24:10;98724.53;;;8.60;53.90
82311;BME280;72015;51.330;12.316;2023-10-31T11:28:36;98731.11;;;8.59;54.30
82311;BME280;72015;51.330;12.316;2023-10-31T11:33:02;98736.03;;;8.63;53.24
82311;BME280;72015;51.330;12.316;2023-10-31T11:37:32;98742.42;;;8.59;54.52
82311;BME280;72015;51.330;12.316;2023-10-31T11:41:55;98746.06;;;8.53;54.96
82311;BME280;72015;51.330;12.316;2023-10-31T11:46:22;98753.50;;;8.54;54.24
82311;BME280;72015;51.330;12.316;2023-10-31T11:50:46;98764.89;;;8.43;55.78
82311;BME280;72015;51.330;12.316;2023-10-31T11:55:12;98774.27;;;8.37;55.49
82311;BME280;72015;51.330;12.316;2023-10-31T11:59:38;98785.71;;;8.33;55.85
82311;BME280;72015;51.330;12.316;2023-10-31T12:04:04;98795.83;;;8.27;56.05
82311;BME280;72015;51.330;12.316;2023-10-31T12:12:56;98808.99;;;8.30;54.44
82311;BME280;72015;51.330;12.316;2023-10-31T12:17:22;98817.47;;;8.32;55.58
82311;BME280;72015;51.330;12.316;2023-10-31T12:21:48;98825.13;;;8.38;55.44
82311;BME280;72015;51.330;12.316;2023-10-31T12:26:14;98831.24;;;8.45;54.52
82311;BME280;72015;51.330;12.316;2023-10-31T12:30:44;98838.97;;;8.47;54.40
82311;BME280;72015;51.330;12.316;2023-10-31T12:35:06;98843.63;;;8.50;54.27
82311;BME280;72015;51.330;12.316;2023-10-31T12:39:32;98845.45;;;8.50;54.20
82311;BME280;72015;51.330;12.316;2023-10-31T12:43:58;98847.74;;;8.74;52.56
82311;BME280;72015;51.330;12.316;2023-10-31T12:48:24;98849.56;;;8.84;54.56
82311;BME280;72015;51.330;12.316;2023-10-31T12:52:51;98852.43;;;8.87;54.37
82311;BME280;72015;51.330;12.316;2023-10-31T12:57:16;98854.49;;;9.05;52.75
82311;BME280;72015;51.330;12.316;2023-10-31T13:01:43;98855.22;;;9.18;52.29
82311;BME280;72015;51.330;12.316;2023-10-31T13:10:34;98858.01;;;9.60;51.33
82311;BME280;72015;51.330;12.316;2023-10-31T13:15:00;98860.39;;;9.82;50.80
82311;BME280;72015;51.330;12.316;2023-10-31T13:19:26;98865.36;;;9.90;51.91
82311;BME280;72015;51.330;12.316;2023-10-31T13:23:52;98869.80;;;9.88;52.70
82311;BME280;72015;51.330;12.316;2023-10-31T13:28:18;98874.10;;;9.85;52.48
82311;BME280;72015;51.330;12.316;2023-10-31T13:32:44;98875.22;;;9.86;52.10
82311;BME280;72015;51.330;12.316;2023-10-31T13:37:10;98875.58;;;9.97;51.31
82311;BME280;72015;51.330;12.316;2023-10-31T13:41:36;98877.70;;;10.11;49.94
82311;BME280;72015;51.330;12.316;2023-10-31T13:46:03;98880.04;;;10.16;50.98
82311;BME280;72015;51.330;12.316;2023-10-31T13:50:28;98883.87;;;10.14;51.44
82311;BME280;72015;51.330;12.316;2023-10-31T13:54:54;98888.48;;;9.91;54.12
82311;BME280;72015;51.330;12.316;2023-10-31T13:59:20;98893.16;;;9.75;53.58
82311;BME280;72015;51.330;12.316;2023-10-31T14:03:46;98898.14;;;9.72;52.51
82311;BME280;72015;51.330;12.316;2023-10-31T14:08:12;98906.05;;;9.68;52.44
82311;BME280;72015;51.330;12.316;2023-10-31T14:12:38;98912.38;;;9.71;52.37
82311;BME280;72015;51.330;12.316;2023-10-31T14:17:04;98919.85;;;9.72;52.77
82311;BME280;72015;51.330;12.316;2023-10-31T14:21:30;98927.66;;;9.68;53.23
82311;BME280;72015;51.330;12.316;2023-10-31T14:25:56;98939.54;;;9.67;53.74
82311;BME280;72015;51.330;12.316;2023-10-31T14:30:22;98949.92;;;9.71;52.67
82311;BME280;72015;51.330;12.316;2023-10-31T14:34:48;98958.15;;;9.77;52.76
82311;BME280;72015;51.330;12.316;2023-10-31T14:39:14;98966.53;;;9.84;53.05
82311;BME280;72015;51.330;12.316;2023-10-31T14:43:40;98975.78;;;9.85;52.53
82311;BME280;72015;51.330;12.316;2023-10-31T14:48:06;98986.90;;;9.86;52.94
82311;BME280;72015;51.330;12.316;2023-10-31T14:52:32;98997.38;;;9.84;52.73
82311;BME280;72015;51.330;12.316;2023-10-31T14:56:58;99007.12;;;9.70;54.43
82311;BME280;72015;51.330;12.316;2023-10-31T15:01:24;99013.90;;;9.63;54.89
82311;BME280;72015;51.330;12.316;2023-10-31T15:05:50;99019.50;;;9.39;55.41
82311;BME280;72015;51.330;12.316;2023-10-31T15:10:16;99024.31;;;9.08;56.67
82311;BME280;72015;51.330;12.316;2023-10-31T15:14:42;99027.17;;;8.84;56.39
82311;BME280;72015;51.330;12.316;2023-10-31T15:19:08;99029.33;;;8.77;54.91
82311;BME280;72015;51.330;12.316;2023-10-31T15:23:34;99033.86;;;8.65;56.02
82311;BME280;72015;51.330;12.316;2023-10-31T15:28:00;99038.47;;;8.61;54.90
82311;BME280;72015;51.330;12.316;2023-10-31T15:32:26;99043.94;;;8.57;56.00
82311;BME280;72015;51.330;12.316;2023-10-31T15:36:52;99049.83;;;8.60;55.44
82311;BME280;72015;51.330;12.316;2023-10-31T15:41:18;99056.98;;;8.57;55.18
82311;BME280;72015;51.330;12.316;2023-10-31T15:45:44;99063.85;;;8.58;55.84
82311;BME280;72015;51.330;12.316;2023-10-31T15:50:10;99067.11;;;8.71;54.14
82311;BME280;72015;51.330;12.316;2023-10-31T15:54:36;99071.19;;;8.75;55.46
82311;BME280;72015;51.330;12.316;2023-10-31T15:59:02;99075.97;;;8.83;54.85
82311;BME280;72015;51.330;12.316;2023-10-31T16:03:28;99081.54;;;8.90;54.96
82311;BME280;72015;51.330;12.316;2023-10-31T16:07:54;99087.50;;;8.88;55.80
82311;BME280;72015;51.330;12.316;2023-10-31T16:12:20;99094.47;;;8.93;55.23
82311;BME280;72015;51.330;12.316;2023-10-31T16:16:47;99102.14;;;8.98;54.71
82311;BME280;72015;51.330;12.316;2023-10-31T16:21:19;99109.91;;;8.91;55.76
82311;BME280;72015;51.330;12.316;2023-10-31T16:25:38;99117.31;;;8.89;56.33
82311;BME280;72015;51.330;12.316;2023-10-31T16:30:05;99123.41;;;8.90;55.11
82311;BME280;72015;51.330;12.316;2023-10-31T16:34:30;99131.22;;;8.88;55.37
82311;BME280;72015;51.330;12.316;2023-10-31T16:38:56;99138.81;;;8.90;55.15
82311;BME280;72015;51.330;12.316;2023-10-31T16:43:22;99145.88;;;8.85;56.00
82311;BME280;72015;51.330;12.316;2023-10-31T16:47:48;99153.55;;;8.80;55.87
82311;BME280;72015;51.330;12.316;2023-10-31T16:52:14;99162.24;;;8.83;55.00
82311;BME280;72015;51.330;12.316;2023-10-31T16:56:40;99167.96;;;8.95;53.22
82311;BME280;72015;51.330;12.316;2023-10-31T17:01:06;99174.03;;;8.95;54.57
82311;BME280;72015;51.330;12.316;2023-10-31T17:05:32;99181.59;;;8.95;55.00
82311;BME280;72015;51.330;12.316;2023-10-31T17:09:58;99187.70;;;8.97;53.93
82311;BME280;72015;51.330;12.316;2023-10-31T17:14:24;99192.21;;;9.01;53.97
82311;BME280;72015;51.330;12.316;2023-10-31T17:18:50;99197.75;;;8.92;56.00
82311;BME280;72015;51.330;12.316;2023-10-31T17:23:16;99201.34;;;8.86;55.40
82311;BME280;72015;51.330;12.316;2023-10-31T17:27:43;99207.61;;;8.81;55.91
82311;BME280;72015;51.330;12.316;2023-10-31T17:32:09;99214.08;;;8.74;55.90
82311;BME280;72015;51.330;12.316;2023-10-31T17:36:35;99222.00;;;8.83;54.45
82311;BME280;72015;51.330;12.316;2023-10-31T17:41:01;99230.20;;;8.83;55.02
82311;BME280;72015;51.330;12.316;2023-10-31T17:45:27;99237.58;;;8.84;55.07
82311;BME280;72015;51.330;12.316;2023-10-31T17:49:53;99245.54;;;8.74;55.90
82311;BME280;72015;51.330;12.316;2023-10-31T17:54:19;99249.20;;;8.74;55.46
82311;BME280;72015;51.330;12.316;2023-10-31T17:58:45;99254.38;;;8.79;54.77
82311;BME280;72015;51.330;12.316;2023-10-31T18:03:11;99263.98;;;8.77;55.20
82311;BME280;72015;51.330;12.316;2023-10-31T18:07:37;99270.56;;;8.70;55.92
82311;BME280;72015;51.330;12.316;2023-10-31T18:12:03;99277.10;;;8.46;57.81
82311;BME280;72015;51.330;12.316;2023-10-31T18:16:29;99283.29;;;8.32;57.29
82311;BME280;72015;51.330;12.316;2023-10-31T18:20:55;99287.84;;;8.19;57.53
82311;BME280;72015;51.330;12.316;2023-10-31T18:25:21;99291.71;;;8.15;57.04
82311;BME280;72015;51.330;12.316;2023-10-31T18:29:50;99294.68;;;8.13;56.85
82311;BME280;72015;51.330;12.316;2023-10-31T18:34:13;99298.51;;;8.23;55.59
82311;BME280;72015;51.330;12.316;2023-10-31T18:38:39;99300.47;;;8.19;56.86
82311;BME280;72015;51.330;12.316;2023-10-31T18:43:05;99303.36;;;8.11;57.50
82311;BME280;72015;51.330;12.316;2023-10-31T18:47:31;99305.52;;;8.11;56.37
82311;BME280;72015;51.330;12.316;2023-10-31T18:51:57;99308.14;;;8.15;56.27
82311;BME280;72015;51.330;12.316;2023-10-31T18:56:23;99312.07;;;8.14;56.67
82311;BME280;72015;51.330;12.316;2023-10-31T19:00:49;99318.53;;;8.15;56.83
82311;BME280;72015;51.330;12.316;2023-10-31T19:05:15;99324.02;;;8.08;57.33
82311;BME280;72015;51.330;12.316;2023-10-31T19:09:41;99330.29;;;8.02;57.79
82311;BME280;72015;51.330;12.316;2023-10-31T19:14:07;99336.76;;;7.93;59.22
82311;BME280;72015;51.330;12.316;2023-10-31T19:18:33;99341.42;;;7.85;60.36
82311;BME280;72015;51.330;12.316;2023-10-31T19:22:59;99343.34;;;7.87;58.78
82311;BME280;72015;51.330;12.316;2023-10-31T19:27:25;99345.68;;;7.94;57.85
82311;BME280;72015;51.330;12.316;2023-10-31T19:31:51;99348.88;;;7.93;59.07
82311;BME280;72015;51.330;12.316;2023-10-31T19:36:17;99351.75;;;8.03;57.19
82311;BME280;72015;51.330;12.316;2023-10-31T19:40:43;99352.67;;;8.08;57.15
82311;BME280;72015;51.330;12.316;2023-10-31T19:45:10;99355.72;;;8.17;56.77
82311;BME280;72015;51.330;12.316;2023-10-31T19:49:35;99360.14;;;8.28;55.56
82311;BME280;72015;51.330;12.316;2023-10-31T19:54:01;99363.33;;;8.60;53.53
82311;BME280;72015;51.330;12.316;2023-10-31T19:58:27;99368.29;;;8.87;53.27
82311;BME280;72015;51.330;12.316;2023-10-31T20:02:53;99371.58;;;9.11;52.85
82311;BME280;72015;51.330;12.316;2023-10-31T20:07:19;99374.92;;;9.25;53.12
82311;BME280;72015;51.330;12.316;2023-10-31T20:11:45;99379.74;;;9.28;53.74
82311;BME280;72015;51.330;12.316;2023-10-31T20:16:11;99381.85;;;9.24;54.69
82311;BME280;72015;51.330;12.316;2023-10-31T20:20:37;99385.69;;;9.09;55.98
82311;BME280;72015;51.330;12.316;2023-10-31T20:25:03;99387.37;;;9.02;54.91
82311;BME280;72015;51.330;12.316;2023-10-31T20:29:29;99388.22;;;8.97;55.06
82311;BME280;72015;51.330;12.316;2023-10-31T20:33:55;99390.19;;;8.78;56.55
82311;BME280;72015;51.330;12.316;2023-10-31T20:38:21;99392.38;;;8.72;55.83
82311;BME280;72015;51.330;12.316;2023-10-31T20:42:47;99394.78;;;8.72;54.75
82311;BME280;72015;51.330;12.316;2023-10-31T20:47:13;99395.70;;;8.69;55.53
82311;BME280;72015;51.330;12.316;2023-10-31T20:51:39;99396.75;;;8.65;55.75
82311;BME280;72015;51.330;12.316;2023-10-31T20:56:06;99396.91;;;8.65;55.11
82311;BME280;72015;51.330;12.316;2023-10-31T21:00:31;99396.17;;;8.70;54.92
82311;BME280;72015;51.330;12.316;2023-10-31T21:04:57;99397.19;;;8.85;52.90
82311;BME280;72015;51.330;12.316;2023-10-31T21:09:23;99399.52;;;8.85;54.79
82311;BME280;72015;51.330;12.316;2023-10-31T21:13:49;99402.17;;;8.80;54.40
82311;BME280;72015;51.330;12.316;2023-10-31T21:18:15;99404.19;;;8.69;55.22
82311;BME280;72015;51.330;12.316;2023-10-31T21:22:41;99406.17;;;8.53;56.21
82311;BME280;72015;51.330;12.316;2023-10-31T21:27:07;99407.28;;;8.49;54.55
82311;BME280;72015;51.330;12.316;2023-10-31T21:31:33;99408.26;;;8.43;55.21
82311;BME280;72015;51.330;12.316;2023-10-31T21:35:59;99409.13;;;8.33;55.78
82311;BME280;72015;51.330;12.316;2023-10-31T21:40:25;99408.95;;;8.23;56.88
82311;BME280;72015;51.330;12.316;2023-10-31T21:44:51;99409.48;;;8.07;56.55
82311;BME280;72015;51.330;12.316;2023-10-31T21:49:17;99413.25;;;7.97;57.12
82311;BME280;72015;51.330;12.316;2023-10-31T21:53:43;99416.97;;;7.94;56.50
82311;BME280;72015;51.330;12.316;2023-10-31T21:58:09;99420.60;;;7.92;56.19
82311;BME280;72015;51.330;12.316;2023-10-31T22:02:35;99423.99;;;7.96;55.12
82311;BME280;72015;51.330;12.316;2023-10-31T22:07:01;99426.92;;;8.04;55.21
82311;BME280;72015;51.330;12.316;2023-10-31T22:11:27;99429.83;;;8.18;54.19
82311;BME280;72015;51.330;12.316;2023-10-31T22:15:53;99433.42;;;8.32;53.47
82311;BME280;72015;51.330;12.316;2023-10-31T22:20:19;99435.74;;;8.44;53.88
82311;BME280;72015;51.330;12.316;2023-10-31T22:24:45;99437.60;;;8.57;52.88
82311;BME280;72015;51.330;12.316;2023-10-31T22:29:11;99440.77;;;8.65;53.22
82311;BME280;72015;51.330;12.316;2023-10-31T22:33:37;99443.97;;;8.72;53.28
82311;BME280;72015;51.330;12.316;2023-10-31T22:38:03;99446.20;;;8.78;53.29
82311;BME280;72015;51.330;12.316;2023-10-31T22:42:29;99449.37;;;8.83;53.02
82311;BME280;72015;51.330;12.316;2023-10-31T22:46:55;99452.91;;;8.92;52.56
82311;BME280;72015;51.330;12.316;2023-10-31T22:51:21;99457.33;;;9.01;52.42
82311;BME280;72015;51.330;12.316;2023-10-31T22:55:47;99461.76;;;9.05;52.04
82311;BME280;72015;51.330;12.316;2023-10-31T23:00:13;99464.28;;;9.13;52.02
82311;BME280;72015;51.330;12.316;2023-10-31T23:04:39;99465.89;;;9.20;51.86
82311;BME280;72015;51.330;12.316;2023-10-31T23:09:05;99466.30;;;9.23;52.24
82311;BME280;72015;51.330;12.316;2023-10-31T23:13:31;99465.83;;;9.25;52.39
82311;BME280;72015;51.330;12.316;2023-10-31T23:17:57;99464.81;;;9.18;53.12
82311;BME280;72015;51.330;12.316;2023-10-31T23:22:23;99464.00;;;9.14;52.71
82311;BME280;72015;51.330;12.316;2023-10-31T23:26:49;99463.23;;;9.03;53.82
82311;BME280;72015;51.330;12.316;2023-10-31T23:31:15;99463.42;;;8.97;53.31
82311;BME280;72015;51.330;12.316;2023-10-31T23:35:41;99464.78;;;8.96;53.55
82311;BME280;72015;51.330;12.316;2023-10-31T23:40:07;99467.11;;;9.04;52.37
82311;BME280;72015;51.330;12.316;2023-10-31T23:44:33;99470.81;;;9.12;52.59
82311;BME280;72015;51.330;12.316;2023-10-31T23:48:59;99473.97;;;9.19;52.71